createdAt,value
2017-11-29T00:00:47.746Z,990.27
2017-11-29T00:01:57.759Z,990.24
2017-11-29T00:03:07.520Z,990.21
2017-11-29T00:04:17.269Z,990.21
2017-11-29T00:05:27.049Z,990.16
2017-11-29T00:06:37.085Z,990.17
2017-11-29T00:07:47.099Z,990.14
2017-11-29T00:08:57.115Z,990.16
2017-11-29T00:10:06.868Z,990.1
2017-11-29T00:11:16.089Z,990.13
2017-11-29T00:12:25.865Z,990.17
2017-11-29T00:13:35.347Z,990.15
2017-11-29T00:14:45.138Z,990.17
2017-11-29T00:15:54.886Z,990.21
2017-11-29T00:17:04.925Z,990.17
2017-11-29T00:18:14.938Z,990.22
2017-11-29T00:19:24.685Z,990.16
2017-11-29T00:20:34.472Z,990.18
2017-11-29T00:21:44.499Z,990.17
2017-11-29T00:22:53.985Z,990.11
2017-11-29T00:24:04.016Z,990.18
2017-11-29T00:25:14.026Z,990.19
2017-11-29T00:26:24.092Z,990.17
2017-11-29T00:27:33.849Z,990.19
2017-11-29T00:28:43.596Z,990.18
2017-11-29T00:29:53.639Z,990.16
2017-11-29T00:31:03.392Z,990.19
2017-11-29T00:32:13.185Z,990.17
2017-11-29T00:33:22.939Z,990.19
2017-11-29T00:34:32.421Z,990.16
2017-11-29T00:35:42.432Z,990.16
2017-11-29T00:36:52.449Z,990.14
2017-11-29T00:38:01.927Z,990.12
2017-11-29T00:39:11.429Z,990.11
2017-11-29T00:40:21.452Z,990.08
2017-11-29T00:41:31.504Z,990.12
2017-11-29T00:42:41.515Z,990.1
2017-11-29T00:43:51.030Z,990.1
2017-11-29T00:45:00.504Z,990.13
2017-11-29T00:46:10.509Z,990.13
2017-11-29T00:47:20.250Z,990.17
2017-11-29T00:48:30.009Z,990.11
2017-11-29T00:49:40.051Z,990.11
2017-11-29T00:50:50.062Z,990.09
2017-11-29T00:52:00.068Z,990.12
2017-11-29T00:53:09.820Z,990.11
2017-11-29T00:54:19.562Z,990.14
2017-11-29T00:55:29.590Z,990.11
2017-11-29T00:56:39.614Z,990.14
2017-11-29T00:57:49.635Z,990.13
2017-11-29T00:58:59.369Z,990.12
2017-11-29T01:00:09.501Z,990.12
2017-11-29T01:01:19.245Z,990.12
2017-11-29T01:02:29.255Z,990.14
2017-11-29T01:03:39.511Z,990.11
2017-11-29T01:04:49.525Z,990.1
2017-11-29T01:05:59.285Z,990.07
2017-11-29T01:07:08.837Z,990.07
2017-11-29T01:08:18.580Z,990.04
2017-11-29T01:09:28.324Z,990.03
2017-11-29T01:10:38.348Z,989.98
2017-11-29T01:11:48.345Z,990
2017-11-29T01:12:58.339Z,990.01
2017-11-29T01:14:08.342Z,989.98
2017-11-29T01:15:18.354Z,990.02
2017-11-29T01:16:28.371Z,990
2017-11-29T01:17:38.143Z,989.99
2017-11-29T01:18:48.263Z,989.97
2017-11-29T01:19:58.260Z,989.99
2017-11-29T01:21:08.025Z,989.97
2017-11-29T01:22:18.055Z,989.96
2017-11-29T01:23:27.801Z,989.94
2017-11-29T01:24:37.934Z,989.95
2017-11-29T01:25:47.690Z,989.98
2017-11-29T01:26:57.440Z,989.98
2017-11-29T01:28:06.918Z,989.98
2017-11-29T01:29:16.670Z,989.96
2017-11-29T01:30:26.162Z,990
2017-11-29T01:31:35.653Z,989.99
2017-11-29T01:32:45.409Z,989.94
2017-11-29T01:33:55.421Z,989.91
2017-11-29T01:35:05.428Z,989.91
2017-11-29T01:36:15.224Z,989.91
2017-11-29T01:37:25.018Z,989.91
2017-11-29T01:38:34.837Z,989.89
2017-11-29T01:39:44.655Z,989.87
2017-11-29T01:40:54.467Z,989.92
2017-11-29T01:42:04.289Z,989.92
2017-11-29T01:43:14.393Z,989.88
2017-11-29T01:44:24.482Z,989.91
2017-11-29T01:45:34.332Z,989.89
2017-11-29T01:46:44.120Z,989.85
2017-11-29T01:47:54.181Z,989.9
2017-11-29T01:49:04.261Z,989.89
2017-11-29T01:50:14.121Z,989.85
2017-11-29T01:51:24.200Z,989.83
2017-11-29T01:52:34.005Z,989.79
2017-11-29T01:53:44.076Z,989.8
2017-11-29T01:54:53.943Z,989.79
2017-11-29T01:56:03.786Z,989.81
2017-11-29T01:57:13.856Z,989.77
2017-11-29T01:58:23.940Z,989.78
2017-11-29T01:59:33.501Z,989.75
2017-11-29T02:00:43.318Z,989.74
2017-11-29T02:01:52.588Z,989.7
2017-11-29T02:03:02.406Z,989.71
2017-11-29T02:04:12.496Z,989.67
2017-11-29T02:05:22.291Z,989.7
2017-11-29T02:06:32.375Z,989.67
2017-11-29T02:07:42.188Z,989.67
2017-11-29T02:08:51.991Z,989.68
2017-11-29T02:10:01.530Z,989.68
2017-11-29T02:11:11.362Z,989.63
2017-11-29T02:12:21.451Z,989.63
2017-11-29T02:13:31.305Z,989.66
2017-11-29T02:14:41.377Z,989.6
2017-11-29T02:15:50.911Z,989.61
2017-11-29T02:17:00.731Z,989.58
2017-11-29T02:18:10.539Z,989.58
2017-11-29T02:19:20.403Z,989.58
2017-11-29T02:20:30.226Z,989.59
2017-11-29T02:21:40.033Z,989.59
2017-11-29T02:22:49.854Z,989.59
2017-11-29T02:23:59.657Z,989.6
2017-11-29T02:25:10.024Z,989.62
2017-11-29T02:26:19.825Z,989.57
2017-11-29T02:27:29.628Z,989.57
2017-11-29T02:28:39.482Z,989.59
2017-11-29T02:29:49.276Z,989.54
2017-11-29T02:30:59.417Z,989.52
2017-11-29T02:32:09.491Z,989.56
2017-11-29T02:33:19.596Z,989.56
2017-11-29T02:34:29.675Z,989.56
2017-11-29T02:35:39.770Z,989.5
2017-11-29T02:36:49.854Z,989.51
2017-11-29T02:37:59.678Z,989.5
2017-11-29T02:39:09.472Z,989.57
2017-11-29T02:40:19.590Z,989.5
2017-11-29T02:41:29.403Z,989.49
2017-11-29T02:42:39.541Z,989.48
2017-11-29T02:43:49.629Z,989.43
2017-11-29T02:44:59.190Z,989.47
2017-11-29T02:46:09.010Z,989.45
2017-11-29T02:47:19.114Z,989.44
2017-11-29T02:48:28.646Z,989.46
2017-11-29T02:49:38.442Z,989.44
2017-11-29T02:50:48.249Z,989.48
2017-11-29T02:51:58.055Z,989.45
2017-11-29T02:53:08.141Z,989.51
2017-11-29T02:54:18.285Z,989.48
2017-11-29T02:55:28.410Z,989.49
2017-11-29T02:56:38.237Z,989.47
2017-11-29T02:57:48.335Z,989.46
2017-11-29T02:58:58.437Z,989.45
2017-11-29T03:00:07.977Z,989.42
2017-11-29T03:01:18.045Z,989.43
2017-11-29T03:02:28.134Z,989.49
2017-11-29T03:33:44.623Z,989.67
2017-11-29T03:34:54.714Z,989.64
2017-11-29T03:36:04.800Z,989.63
2017-11-29T03:37:14.871Z,989.73
2017-11-29T03:38:24.674Z,989.72
2017-11-29T03:39:34.210Z,989.71
2017-11-29T03:40:44.292Z,989.72
2017-11-29T03:41:54.106Z,989.73
2017-11-29T03:43:03.375Z,989.71
2017-11-29T03:44:13.843Z,989.67
2017-11-29T03:45:23.699Z,989.65
2017-11-29T03:46:33.784Z,989.64
2017-11-29T03:47:43.589Z,989.66
2017-11-29T03:48:53.660Z,989.67
2017-11-29T03:50:03.724Z,989.68
2017-11-29T03:51:13.841Z,989.67
2017-11-29T03:52:23.913Z,989.64
2017-11-29T03:53:33.712Z,989.69
2017-11-29T03:54:43.808Z,989.7
2017-11-29T03:55:53.865Z,989.67
2017-11-29T03:57:03.718Z,989.68
2017-11-29T03:58:13.801Z,989.75
2017-11-29T03:59:23.878Z,989.73
2017-11-29T04:00:33.691Z,989.72
2017-11-29T04:01:43.503Z,989.75
2017-11-29T04:02:54.979Z,989.68
2017-11-29T04:04:04.803Z,989.72
2017-11-29T04:05:14.605Z,989.64
2017-11-29T04:06:24.395Z,989.67
2017-11-29T04:07:34.478Z,989.65
2017-11-29T04:08:44.567Z,989.68
2017-11-29T04:09:54.644Z,989.7
2017-11-29T04:11:04.742Z,989.7
2017-11-29T04:12:14.820Z,989.72
2017-11-29T04:13:24.900Z,989.72
2017-11-29T04:14:35.041Z,989.73
2017-11-29T04:15:44.829Z,989.68
2017-11-29T04:16:54.909Z,989.68
2017-11-29T04:18:04.998Z,989.67
2017-11-29T04:19:15.071Z,989.66
2017-11-29T04:20:24.949Z,989.68
2017-11-29T04:21:35.024Z,989.73
2017-11-29T04:22:44.591Z,989.76
2017-11-29T04:23:54.678Z,989.75
2017-11-29T04:25:04.496Z,989.74
2017-11-29T04:26:14.361Z,989.69
2017-11-29T04:27:24.177Z,989.64
2017-11-29T04:28:33.987Z,989.65
2017-11-29T04:29:44.052Z,989.68
2017-11-29T04:30:53.859Z,989.72
2017-11-29T04:32:03.944Z,989.78
2017-11-29T04:33:13.752Z,989.78
2017-11-29T04:34:23.838Z,989.78
2017-11-29T04:35:33.654Z,989.81
2017-11-29T04:36:43.729Z,989.72
2017-11-29T04:37:53.338Z,989.75
2017-11-29T04:39:03.161Z,989.76
2017-11-29T04:40:13.636Z,989.74
2017-11-29T04:41:23.444Z,989.74
2017-11-29T04:42:33.243Z,989.73
2017-11-29T04:43:43.372Z,989.71
2017-11-29T04:44:53.183Z,989.71
2017-11-29T04:46:03.262Z,989.71
2017-11-29T04:47:12.801Z,989.72
2017-11-29T04:48:22.875Z,989.73
2017-11-29T04:49:32.421Z,989.79
2017-11-29T04:50:42.253Z,989.81
2017-11-29T04:51:51.806Z,989.87
2017-11-29T04:53:01.620Z,989.88
2017-11-29T04:54:11.432Z,989.86
2017-11-29T04:55:21.543Z,989.86
2017-11-29T04:56:31.611Z,989.88
2017-11-29T04:57:42.690Z,989.88
2017-11-29T04:58:52.224Z,989.87
2017-11-29T05:00:02.301Z,989.89
2017-11-29T05:01:12.477Z,989.86
2017-11-29T05:02:22.555Z,989.91
2017-11-29T05:03:32.362Z,989.88
2017-11-29T05:04:42.430Z,989.88
2017-11-29T05:05:52.236Z,989.85
2017-11-29T05:07:01.537Z,989.85
2017-11-29T05:08:11.600Z,989.87
2017-11-29T05:09:21.671Z,989.84
2017-11-29T05:10:31.743Z,989.83
2017-11-29T05:11:41.821Z,989.9
2017-11-29T05:12:51.660Z,989.89
2017-11-29T05:14:01.502Z,989.87
2017-11-29T05:15:11.785Z,989.87
2017-11-29T05:16:21.596Z,989.88
2017-11-29T05:17:31.678Z,989.87
2017-11-29T05:18:41.821Z,989.91
2017-11-29T05:19:51.640Z,989.9
2017-11-29T05:21:01.468Z,989.9
2017-11-29T05:22:11.289Z,989.88
2017-11-29T05:23:21.356Z,989.88
2017-11-29T05:24:31.419Z,989.84
2017-11-29T05:25:41.498Z,989.84
2017-11-29T05:26:51.572Z,989.88
2017-11-29T05:28:01.674Z,989.89
2017-11-29T05:29:11.210Z,989.89
2017-11-29T05:30:20.822Z,989.91
2017-11-29T05:31:30.628Z,989.9
2017-11-29T05:32:40.445Z,989.9
2017-11-29T05:33:50.244Z,989.88
2017-11-29T05:34:59.783Z,989.87
2017-11-29T05:36:09.382Z,989.86
2017-11-29T05:37:19.190Z,989.9
2017-11-29T05:38:29.263Z,989.88
2017-11-29T05:39:39.340Z,989.86
2017-11-29T05:40:49.411Z,989.85
2017-11-29T05:41:59.528Z,989.82
2017-11-29T05:43:09.612Z,989.81
2017-11-29T05:44:19.693Z,989.81
2017-11-29T05:45:29.495Z,989.85
2017-11-29T05:46:39.584Z,989.84
2017-11-29T05:47:49.449Z,989.85
2017-11-29T05:48:59.510Z,989.86
2017-11-29T05:50:09.626Z,989.81
2017-11-29T05:51:19.704Z,989.82
2017-11-29T05:52:29.506Z,989.83
2017-11-29T05:53:39.622Z,989.82
2017-11-29T05:54:49.169Z,989.82
2017-11-29T05:55:58.726Z,989.85
2017-11-29T05:57:10.014Z,989.85
2017-11-29T05:58:19.564Z,989.8
2017-11-29T05:59:29.644Z,989.8
2017-11-29T06:00:39.712Z,989.8
2017-11-29T06:01:50.415Z,989.79
2017-11-29T06:03:00.486Z,989.82
2017-11-29T06:04:10.588Z,989.83
2017-11-29T06:05:20.734Z,989.82
2017-11-29T06:06:30.552Z,989.78
2017-11-29T06:07:40.642Z,989.82
2017-11-29T06:08:50.458Z,989.82
2017-11-29T06:10:00.555Z,989.83
2017-11-29T06:11:10.669Z,989.85
2017-11-29T06:12:20.755Z,989.84
2017-11-29T06:13:30.572Z,989.86
2017-11-29T06:14:40.638Z,989.86
2017-11-29T06:15:50.431Z,989.88
2017-11-29T06:17:00.563Z,989.88
2017-11-29T06:18:10.638Z,989.91
2017-11-29T06:19:20.462Z,989.91
2017-11-29T06:20:30.555Z,989.95
2017-11-29T06:21:39.837Z,989.96
2017-11-29T06:22:49.900Z,989.99
2017-11-29T06:23:59.976Z,990.02
2017-11-29T06:25:09.779Z,990.04
2017-11-29T06:26:20.123Z,990.07
2017-11-29T06:27:29.985Z,990.14
2017-11-29T06:28:39.900Z,990.11
2017-11-29T06:29:49.726Z,990.15
2017-11-29T06:30:59.807Z,990.21
2017-11-29T06:32:09.870Z,990.2
2017-11-29T06:33:19.950Z,990.19
2017-11-29T06:34:29.762Z,990.23
2017-11-29T06:35:39.301Z,990.26
2017-11-29T06:36:49.107Z,990.25
2017-11-29T06:37:58.636Z,990.26
2017-11-29T06:39:08.195Z,990.26
2017-11-29T06:40:18.274Z,990.34
2017-11-29T06:41:28.351Z,990.33
2017-11-29T06:42:38.437Z,990.35
2017-11-29T06:43:48.505Z,990.36
2017-11-29T06:44:58.588Z,990.36
2017-11-29T06:46:08.706Z,990.31
2017-11-29T06:47:18.768Z,990.18
2017-11-29T06:48:28.612Z,990.22
2017-11-29T06:49:38.174Z,990.27
2017-11-29T06:50:48.255Z,990.25
2017-11-29T06:51:58.441Z,990.31
2017-11-29T06:53:08.540Z,990.4
2017-11-29T06:54:18.347Z,990.36
2017-11-29T06:55:28.431Z,990.35
2017-11-29T06:56:38.521Z,990.33
2017-11-29T06:57:48.583Z,990.34
2017-11-29T06:58:58.138Z,990.38
2017-11-29T07:00:07.953Z,990.35
2017-11-29T07:01:18.057Z,990.45
2017-11-29T07:02:27.878Z,990.47
2017-11-29T07:03:37.947Z,990.46
2017-11-29T07:04:47.758Z,990.46
2017-11-29T07:05:57.840Z,990.43
2017-11-29T07:07:07.905Z,990.43
2017-11-29T07:08:17.987Z,990.45
2017-11-29T07:09:28.075Z,990.42
2017-11-29T07:10:38.148Z,990.41
2017-11-29T07:11:48.220Z,990.42
2017-11-29T07:12:58.279Z,990.44
2017-11-29T07:14:08.091Z,990.45
2017-11-29T07:15:18.161Z,990.5
2017-11-29T07:16:27.711Z,990.48
2017-11-29T07:17:37.778Z,990.51
2017-11-29T07:18:47.652Z,990.44
2017-11-29T07:19:57.732Z,990.47
2017-11-29T07:21:07.557Z,990.46
2017-11-29T07:22:17.642Z,990.47
2017-11-29T07:23:27.731Z,990.49
2017-11-29T07:24:37.325Z,990.51
2017-11-29T07:25:47.411Z,990.48
2017-11-29T07:26:56.967Z,990.49
2017-11-29T07:28:07.045Z,990.53
2017-11-29T07:29:17.133Z,990.53
2017-11-29T07:30:27.204Z,990.58
2017-11-29T07:31:37.009Z,990.6
2017-11-29T07:32:46.888Z,990.57
2017-11-29T07:33:56.958Z,990.62
2017-11-29T07:35:07.038Z,990.59
2017-11-29T07:36:17.172Z,990.58
2017-11-29T07:37:26.998Z,990.57
2017-11-29T07:38:36.548Z,990.57
2017-11-29T07:39:46.376Z,990.54
2017-11-29T07:40:56.459Z,990.55
2017-11-29T07:42:06.014Z,990.54
2017-11-29T07:43:15.828Z,990.56
2017-11-29T07:44:25.363Z,990.59
2017-11-29T07:45:35.166Z,990.61
2017-11-29T07:46:45.232Z,990.55
2017-11-29T07:47:55.027Z,990.56
2017-11-29T07:49:04.872Z,990.61
2017-11-29T07:50:14.944Z,990.63
2017-11-29T07:51:24.763Z,990.6
2017-11-29T07:52:34.573Z,990.65
2017-11-29T07:53:44.646Z,990.64
2017-11-29T07:54:54.183Z,990.68
2017-11-29T07:56:03.843Z,990.68
2017-11-29T07:57:13.654Z,990.7
2017-11-29T07:58:23.719Z,990.71
2017-11-29T07:59:33.537Z,990.71
2017-11-29T08:00:43.099Z,990.69
2017-11-29T08:01:53.184Z,990.68
2017-11-29T08:03:03.267Z,990.7
2017-11-29T08:04:13.081Z,990.63
2017-11-29T08:05:23.154Z,990.64
2017-11-29T08:06:32.969Z,990.63
2017-11-29T08:07:43.088Z,990.58
2017-11-29T08:08:52.641Z,990.6
2017-11-29T08:10:03.082Z,990.6
2017-11-29T08:11:13.311Z,990.61
2017-11-29T08:12:23.400Z,990.62
2017-11-29T08:13:33.535Z,990.64
2017-11-29T08:14:43.632Z,990.62
2017-11-29T08:15:53.693Z,990.61
2017-11-29T08:17:03.254Z,990.64
2017-11-29T08:18:12.795Z,990.59
2017-11-29T08:19:22.872Z,990.62
2017-11-29T08:20:32.948Z,990.59
2017-11-29T08:21:43.022Z,990.59
2017-11-29T08:22:53.088Z,990.56
2017-11-29T08:24:03.157Z,990.62
2017-11-29T08:25:12.974Z,990.62
2017-11-29T08:26:23.057Z,990.66
2017-11-29T08:27:33.128Z,990.65
2017-11-29T08:28:43.279Z,990.66
2017-11-29T08:29:53.360Z,990.64
2017-11-29T08:31:03.441Z,990.68
2017-11-29T08:32:13.525Z,990.7
2017-11-29T08:33:23.097Z,990.76
2017-11-29T08:34:33.237Z,990.75
2017-11-29T08:35:43.046Z,990.8
2017-11-29T08:36:52.857Z,990.77
2017-11-29T08:38:02.938Z,990.79
2017-11-29T08:39:12.475Z,990.78
2017-11-29T08:40:22.546Z,990.77
2017-11-29T08:41:32.346Z,990.8
2017-11-29T08:42:42.426Z,990.78
2017-11-29T08:43:52.252Z,990.77
2017-11-29T08:45:02.326Z,990.74
2017-11-29T08:46:12.423Z,990.82
2017-11-29T08:47:21.965Z,990.82
2017-11-29T08:48:32.057Z,990.83
2017-11-29T08:49:41.858Z,990.85
2017-11-29T08:50:51.932Z,990.88
2017-11-29T08:52:01.800Z,990.88
2017-11-29T08:53:11.609Z,990.95
2017-11-29T08:54:21.685Z,990.92
2017-11-29T08:55:31.756Z,990.95
2017-11-29T08:56:41.830Z,990.89
2017-11-29T08:57:51.949Z,990.9
2017-11-29T08:59:01.806Z,990.9
2017-11-29T09:00:12.450Z,990.92
2017-11-29T09:01:22.282Z,990.9
2017-11-29T09:02:32.346Z,990.89
2017-11-29T09:03:42.179Z,990.9
2017-11-29T09:04:52.245Z,990.91
2017-11-29T09:06:02.322Z,990.93
2017-11-29T09:07:12.183Z,990.89
2017-11-29T09:08:21.990Z,990.85
2017-11-29T09:09:32.160Z,990.92
2017-11-29T09:10:42.244Z,990.93
2017-11-29T09:11:51.825Z,990.94
2017-11-29T09:13:01.637Z,990.99
2017-11-29T09:14:11.425Z,990.99
2017-11-29T09:15:21.535Z,990.96
2017-11-29T09:16:31.619Z,990.96
2017-11-29T09:17:41.427Z,990.96
2017-11-29T09:18:51.240Z,990.98
2017-11-29T09:20:01.058Z,990.94
2017-11-29T09:21:11.136Z,990.91
2017-11-29T09:22:20.945Z,990.89
2017-11-29T09:23:31.063Z,990.89
2017-11-29T09:24:41.196Z,990.84
2017-11-29T09:25:51.267Z,990.84
2017-11-29T09:27:01.354Z,990.84
2017-11-29T09:28:10.911Z,990.86
2017-11-29T09:29:20.723Z,990.84
2017-11-29T09:30:30.823Z,990.81
2017-11-29T09:31:40.638Z,990.85
2017-11-29T09:32:50.718Z,990.84
2017-11-29T09:34:00.254Z,990.83
2017-11-29T09:35:10.064Z,990.83
2017-11-29T09:36:19.883Z,990.81
2017-11-29T09:37:29.705Z,990.82
2017-11-29T09:38:39.782Z,990.79
2017-11-29T09:39:49.871Z,990.78
2017-11-29T09:40:59.945Z,990.74
2017-11-29T09:42:10.066Z,990.75
2017-11-29T09:43:19.613Z,990.73
2017-11-29T09:44:29.690Z,990.67
2017-11-29T09:45:39.768Z,990.68
2017-11-29T09:46:49.562Z,990.63
2017-11-29T09:47:59.367Z,990.62
2017-11-29T09:49:09.197Z,990.58
2017-11-29T09:50:19.260Z,990.57
2017-11-29T09:51:29.074Z,990.54
2017-11-29T09:52:39.182Z,990.6
2017-11-29T09:53:49.274Z,990.59
2017-11-29T09:54:59.347Z,990.56
2017-11-29T09:56:09.164Z,990.57
2017-11-29T09:57:19.275Z,990.56
2017-11-29T09:58:29.142Z,990.57
2017-11-29T09:59:39.283Z,990.54
2017-11-29T10:00:48.595Z,990.55
2017-11-29T10:01:58.673Z,990.53
2017-11-29T10:03:08.223Z,990.49
2017-11-29T10:04:18.030Z,990.46
2017-11-29T10:05:28.119Z,990.47
2017-11-29T10:06:37.985Z,990.39
2017-11-29T10:07:47.556Z,990.43
2017-11-29T10:08:57.113Z,990.39
2017-11-29T10:10:06.697Z,990.35
2017-11-29T10:11:16.025Z,990.29
2017-11-29T10:12:25.592Z,990.3
2017-11-29T10:13:35.409Z,990.27
2017-11-29T10:14:45.245Z,990.25
2017-11-29T10:15:54.788Z,990.25
2017-11-29T10:17:04.654Z,990.25
2017-11-29T10:18:14.477Z,990.3
2017-11-29T10:19:24.577Z,990.34
2017-11-29T10:20:34.134Z,990.34
2017-11-29T10:21:44.189Z,990.39
2017-11-29T10:22:55.319Z,990.41
2017-11-29T10:24:05.405Z,990.51
2017-11-29T10:25:15.213Z,990.46
2017-11-29T10:26:25.016Z,990.52
2017-11-29T10:27:34.862Z,990.5
2017-11-29T10:28:44.938Z,990.51
2017-11-29T10:29:55.045Z,990.51
2017-11-29T10:31:05.134Z,990.57
2017-11-29T10:32:15.202Z,990.57
2017-11-29T10:33:25.020Z,990.55
2017-11-29T10:34:34.609Z,990.54
2017-11-29T10:35:44.706Z,990.5
2017-11-29T10:36:54.783Z,990.48
2017-11-29T10:38:04.909Z,990.47
2017-11-29T10:39:15.237Z,990.47
2017-11-29T10:40:25.045Z,990.49
2017-11-29T10:41:34.855Z,990.53
2017-11-29T10:42:44.417Z,990.51
2017-11-29T10:43:54.500Z,990.45
2017-11-29T10:45:04.049Z,990.43
2017-11-29T10:46:14.209Z,990.41
2017-11-29T10:47:24.275Z,990.36
2017-11-29T10:48:34.368Z,990.36
2017-11-29T10:49:44.460Z,990.37
2017-11-29T10:50:54.555Z,990.42
2017-11-29T10:52:04.092Z,990.47
2017-11-29T10:53:13.924Z,990.43
2017-11-29T10:54:24.313Z,990.45
2017-11-29T10:55:34.373Z,990.44
2017-11-29T10:56:44.454Z,990.4
2017-11-29T10:57:54.511Z,990.4
2017-11-29T10:59:04.886Z,990.38
2017-11-29T11:00:14.439Z,990.39
2017-11-29T11:01:24.245Z,990.39
2017-11-29T11:02:34.341Z,990.34
2017-11-29T11:03:44.498Z,990.32
2017-11-29T11:04:54.568Z,990.29
2017-11-29T11:06:04.397Z,990.29
2017-11-29T11:07:14.207Z,990.31
2017-11-29T11:08:23.997Z,990.27
2017-11-29T11:09:33.893Z,990.23
2017-11-29T11:10:43.154Z,990.22
2017-11-29T11:11:53.130Z,990.22
2017-11-29T11:13:02.988Z,990.19
2017-11-29T11:14:13.063Z,990.21
2017-11-29T11:15:23.222Z,990.24
2017-11-29T11:16:33.878Z,990.28
2017-11-29T11:17:43.996Z,990.25
2017-11-29T11:18:53.960Z,990.26
2017-11-29T11:20:03.768Z,990.19
2017-11-29T11:21:13.634Z,990.16
2017-11-29T11:22:23.723Z,990.16
2017-11-29T11:23:33.535Z,990.19
2017-11-29T11:24:43.342Z,990.11
2017-11-29T11:25:53.177Z,990.09
2017-11-29T11:27:03.049Z,990.12
2017-11-29T11:28:12.880Z,990.15
2017-11-29T11:29:22.428Z,990.19
2017-11-29T11:30:32.249Z,990.23
2017-11-29T11:31:42.355Z,990.27
2017-11-29T11:32:52.472Z,990.27
2017-11-29T11:34:03.251Z,990.27
2017-11-29T11:35:13.331Z,990.25
2017-11-29T11:36:23.450Z,990.3
2017-11-29T11:37:33.605Z,990.25
2017-11-29T11:38:43.389Z,990.3
2017-11-29T11:39:53.538Z,990.29
2017-11-29T11:41:03.728Z,990.32
2017-11-29T11:42:13.637Z,990.32
2017-11-29T11:43:23.792Z,990.28
2017-11-29T11:44:34.010Z,990.24
2017-11-29T11:45:43.888Z,990.26
2017-11-29T11:46:53.975Z,990.2
2017-11-29T11:48:04.125Z,990.25
2017-11-29T11:49:13.949Z,990.26
2017-11-29T11:50:24.151Z,990.21
2017-11-29T11:51:34.231Z,990.15
2017-11-29T11:52:45.414Z,990.11
2017-11-29T11:53:55.480Z,990.04
2017-11-29T11:55:05.290Z,990.01
2017-11-29T11:56:14.898Z,989.98
2017-11-29T11:57:24.964Z,989.94
2017-11-29T11:58:34.767Z,989.94
2017-11-29T11:59:44.880Z,989.94
2017-11-29T12:00:54.429Z,989.91
2017-11-29T12:02:04.527Z,989.91
2017-11-29T12:03:14.602Z,989.95
2017-11-29T12:04:23.930Z,989.88
2017-11-29T12:05:34.021Z,989.88
2017-11-29T12:06:43.656Z,989.9
2017-11-29T12:07:53.615Z,989.85
2017-11-29T12:09:03.497Z,989.86
2017-11-29T12:10:13.445Z,989.88
2017-11-29T12:11:23.615Z,989.91
2017-11-29T12:12:33.785Z,989.97
2017-11-29T12:13:43.756Z,989.99
2017-11-29T12:14:53.854Z,990.03
2017-11-29T12:16:03.982Z,990.02
2017-11-29T12:17:13.900Z,990.03
2017-11-29T12:18:23.958Z,989.98
2017-11-29T12:19:34.124Z,989.95
2017-11-29T12:20:43.956Z,989.91
2017-11-29T12:21:54.412Z,989.86
2017-11-29T12:23:04.513Z,989.83
2017-11-29T12:24:14.060Z,989.84
2017-11-29T12:25:24.192Z,989.79
2017-11-29T12:26:34.006Z,989.8
2017-11-29T12:27:43.852Z,989.81
2017-11-29T12:28:54.002Z,989.83
2017-11-29T12:30:04.095Z,989.81
2017-11-29T12:31:14.206Z,989.8
2017-11-29T12:32:23.777Z,989.8
2017-11-29T12:33:33.618Z,989.74
2017-11-29T12:34:43.726Z,989.8
2017-11-29T12:35:53.587Z,989.83
2017-11-29T12:37:03.474Z,989.89
2017-11-29T12:38:13.571Z,989.9
2017-11-29T12:39:23.188Z,989.91
2017-11-29T12:40:33.681Z,989.87
2017-11-29T12:41:43.781Z,989.89
2017-11-29T12:42:53.926Z,989.92
2017-11-29T12:44:03.734Z,989.93
2017-11-29T12:45:13.562Z,989.93
2017-11-29T12:46:23.636Z,989.91
2017-11-29T12:47:33.711Z,989.94
2017-11-29T12:48:43.837Z,989.89
2017-11-29T12:49:54.287Z,989.88
2017-11-29T12:51:04.104Z,989.89
2017-11-29T12:52:14.174Z,989.9
2017-11-29T12:53:23.713Z,989.86
2017-11-29T12:54:33.808Z,989.84
2017-11-29T12:55:43.873Z,989.81
2017-11-29T12:56:53.420Z,989.79
2017-11-29T12:58:03.232Z,989.76
2017-11-29T12:59:13.345Z,989.71
2017-11-29T13:00:23.504Z,989.67
2017-11-29T13:01:33.046Z,989.68
2017-11-29T13:02:44.363Z,989.58
2017-11-29T13:03:54.459Z,989.51
2017-11-29T13:05:04.528Z,989.52
2017-11-29T13:06:14.325Z,989.56
2017-11-29T13:07:24.157Z,989.58
2017-11-29T13:08:33.982Z,989.57
2017-11-29T13:09:44.138Z,989.54
2017-11-29T13:10:54.257Z,989.5
2017-11-29T13:12:05.372Z,989.46
2017-11-29T13:13:15.456Z,989.47
2017-11-29T13:14:25.560Z,989.47
2017-11-29T13:15:35.147Z,989.51
2017-11-29T13:16:45.234Z,989.54
2017-11-29T13:17:55.352Z,989.54
2017-11-29T13:19:05.153Z,989.49
2017-11-29T13:20:15.248Z,989.42
2017-11-29T13:21:25.361Z,989.41
2017-11-29T13:22:35.427Z,989.33
2017-11-29T13:23:45.594Z,989.29
2017-11-29T13:24:55.398Z,989.3
2017-11-29T13:26:05.489Z,989.37
2017-11-29T13:27:16.191Z,989.36
2017-11-29T13:28:26.276Z,989.36
2017-11-29T13:29:36.337Z,989.38
2017-11-29T13:30:46.710Z,989.39
2017-11-29T13:31:56.547Z,989.37
2017-11-29T13:33:06.658Z,989.32
2017-11-29T13:34:16.510Z,989.39
2017-11-29T13:35:27.432Z,989.41
2017-11-29T13:36:37.515Z,989.43
2017-11-29T13:37:47.339Z,989.5
2017-11-29T13:38:57.177Z,989.49
2017-11-29T13:40:07.254Z,989.5
2017-11-29T13:41:17.390Z,989.47
2017-11-29T13:42:27.490Z,989.45
2017-11-29T13:43:37.322Z,989.44
2017-11-29T13:44:47.117Z,989.43
2017-11-29T13:45:57.243Z,989.42
2017-11-29T13:47:09.390Z,989.42
2017-11-29T13:48:27.207Z,989.47
2017-11-29T13:49:44.555Z,989.5
2017-11-29T13:50:59.212Z,989.46
2017-11-29T13:52:16.682Z,989.43
2017-11-29T13:53:29.717Z,989.47
2017-11-29T13:54:42.877Z,989.48
2017-11-29T13:55:53.406Z,989.51
2017-11-29T13:57:03.717Z,989.54
2017-11-29T13:58:14.804Z,989.56
2017-11-29T13:59:24.882Z,989.53
2017-11-29T14:00:34.949Z,989.61
2017-11-29T14:01:44.751Z,989.56
2017-11-29T14:02:54.851Z,989.55
2017-11-29T14:04:05.448Z,989.52
2017-11-29T14:05:16.127Z,989.56
2017-11-29T14:06:27.786Z,989.58
2017-11-29T14:07:39.376Z,989.56
2017-11-29T14:08:50.543Z,989.57
2017-11-29T14:10:02.053Z,989.57
2017-11-29T14:11:13.456Z,989.55
2017-11-29T14:12:25.628Z,989.53
2017-11-29T14:13:37.202Z,989.59
2017-11-29T14:14:48.395Z,989.56
2017-11-29T14:15:59.981Z,989.5
2017-11-29T14:17:10.937Z,989.43
2017-11-29T14:18:21.845Z,989.4
2017-11-29T14:19:34.313Z,989.33
2017-11-29T14:20:46.507Z,989.37
2017-11-29T14:21:58.679Z,989.36
2017-11-29T14:23:10.892Z,989.43
2017-11-29T14:24:22.543Z,989.46
2017-11-29T14:25:35.136Z,989.53
2017-11-29T14:26:47.135Z,989.51
2017-11-29T14:27:58.040Z,989.5
2017-11-29T14:29:09.701Z,989.49
2017-11-29T14:30:19.872Z,989.45
2017-11-29T14:31:29.737Z,989.47
2017-11-29T14:32:39.985Z,989.48
2017-11-29T14:33:49.940Z,989.47
2017-11-29T14:35:00.110Z,989.51
2017-11-29T14:36:10.231Z,989.5
2017-11-29T14:37:20.341Z,989.52
2017-11-29T14:38:30.199Z,989.48
2017-11-29T14:39:40.009Z,989.41
2017-11-29T14:40:50.102Z,989.38
2017-11-29T14:42:00.306Z,989.34
2017-11-29T14:43:10.504Z,989.34
2017-11-29T14:44:20.459Z,989.29
2017-11-29T14:45:30.645Z,989.35
2017-11-29T14:46:40.884Z,989.33
2017-11-29T14:47:51.302Z,989.33
2017-11-29T14:49:01.439Z,989.39
2017-11-29T14:50:11.651Z,989.38
2017-11-29T14:51:21.764Z,989.41
2017-11-29T14:52:32.058Z,989.4
2017-11-29T14:53:44.160Z,989.44
2017-11-29T14:54:55.860Z,989.42
2017-11-29T14:56:07.662Z,989.42
2017-11-29T14:57:19.630Z,989.44
2017-11-29T14:58:31.962Z,989.42
2017-11-29T14:59:42.205Z,989.42
2017-11-29T15:00:52.186Z,989.38
2017-11-29T15:02:02.959Z,989.34
2017-11-29T15:03:16.399Z,989.3
2017-11-29T15:04:27.865Z,989.29
2017-11-29T15:05:41.529Z,989.3
2017-11-29T15:06:53.733Z,989.29